Pagrindinis puslapis
METAR-TAF:

METAR-TAF

Oro uostai :

Erebru, Švedija

platuma: 59-14N, ilguma: 015-03E, Aukštis: 57 m

Dabartinis oras

Ataskaita buvo paskelbta 19 valandos ir 29 minutes, ne 19:20 UTC
Vėjas 5 kt iš Pietų/Pietvakarių
Temperatūra 11°C
Drėgmė 94%
Slėgis 995 hPa
Matomumas 10 km arba daugiau
Mažai debesys ne aukštis 400 ft
Apsiniaukę ne aukštis 1500 ft

METAR: ESOE 241920Z 20005KT 9999 FEW004 OVC015 11/10 Q0995

Laikas: 16:49 (14:49 UTC)

Prognozė

Ataskaita buvo paskelbta 21 valandos ir 19 minutes, ne 17:30 UTC
Prognozė galioja nuo 24 metu 18 UTC su 24 metu 22 UTC
Vėjas 6 kt iš Pietų
Matomumas: 3000 m
Su prošvaistėmis ne aukštis 400 ft
dulksna
Tapsmas
nuo 24 metu 18 UTC su 24 metu 20 UTC
Vėjas 12 kt iš Vakarų/Pietvakarių
Matomumas 10 km arba daugiau
Mažai debesys ne aukštis 600 ft
Su prošvaistėmis ne aukštis 1500 ft
Tikimybė 40%
nuo 24 metu 20 UTC su 24 metu 22 UTC
Su prošvaistėmis ne aukštis 1000 ft

TAF: ESOE 241730Z 2418/2422 19006KT 3000 -DZ BKN004 BECMG 2418/2420 25012KT 9999 FEW006 BKN015 PROB40 2420/2422 BKN010

Orai ataskaitas ir orų prognozės (METAR, TAF).

turimą stotys yra geltonos ir raudonos taškus žemėlapyje.

Perkelti pele per norėdami pamatyti stoties vardą.

Tada spustelėkite, norėdami matyti oro stebėjimo ir prognozės.

Norėdami pakeisti žemėlapį: spustelėkite ant žalios mygtukų su juodo kryžiaus žemyn,; žalią mygtuką su brūkšneliu, jei norite nutolinti; arba žalių rodyklių gretimoms žemėlapius.


METAR-TAF: